createdAt,value
2022-09-27T00:01:17.342Z,69.91
2022-09-27T00:03:41.498Z,70.00
2022-09-27T00:06:08.566Z,70.13
2022-09-27T00:08:34.210Z,71.06
2022-09-27T00:11:02.142Z,70.80
2022-09-27T00:13:25.906Z,70.90
2022-09-27T00:15:49.645Z,71.36
2022-09-27T00:18:13.451Z,70.52
2022-09-27T00:20:37.170Z,70.04
2022-09-27T00:23:00.811Z,70.67
2022-09-27T00:25:25.977Z,70.49
2022-09-27T00:27:51.056Z,70.32
2022-09-27T00:30:15.453Z,71.19
2022-09-27T00:32:39.407Z,71.66
2022-09-27T00:35:03.135Z,72.04
2022-09-27T00:37:27.750Z,70.26
2022-09-27T00:39:51.515Z,70.39
2022-09-27T00:42:17.079Z,70.11
2022-09-27T00:45:11.441Z,70.02
2022-09-27T00:47:42.290Z,70.82
2022-09-27T00:50:12.924Z,70.14
2022-09-27T00:52:44.244Z,70.21
2022-09-27T00:55:14.809Z,70.92
2022-09-27T00:57:40.524Z,68.96
2022-09-27T01:00:09.756Z,70.61
2022-09-27T01:02:36.567Z,70.69
2022-09-27T01:05:00.404Z,69.62
2022-09-27T01:07:24.313Z,69.06
2022-09-27T01:09:48.252Z,71.02
2022-09-27T01:12:24.470Z,69.57
2022-09-27T01:15:06.884Z,70.64
2022-09-27T01:17:47.787Z,69.66
2022-09-27T01:20:47.512Z,70.61
2022-09-27T01:23:40.711Z,69.44
2022-09-27T01:26:15.766Z,68.97
2022-09-27T01:28:57.816Z,69.44
2022-09-27T01:31:31.937Z,69.43
2022-09-27T01:34:05.387Z,69.61
2022-09-27T01:36:39.539Z,69.38
2022-09-27T01:39:21.192Z,69.20
2022-09-27T01:42:12.822Z,69.53
2022-09-27T01:44:47.926Z,69.76
2022-09-27T01:47:23.106Z,70.28
2022-09-27T01:50:01.833Z,70.19
2022-09-27T01:52:34.090Z,70.93
2022-09-27T01:55:02.683Z,70.08
2022-09-27T01:57:42.161Z,69.75
2022-09-27T02:00:14.380Z,70.04
2022-09-27T02:02:45.504Z,70.54
2022-09-27T02:05:34.975Z,71.39
2022-09-27T02:08:20.183Z,70.84
2022-09-27T02:10:47.366Z,69.77
2022-09-27T02:13:21.667Z,70.28
2022-09-27T02:15:57.976Z,69.46
2022-09-27T02:18:45.637Z,70.20
2022-09-27T02:21:13.329Z,69.99
2022-09-27T02:23:42.523Z,69.61
2022-09-27T02:26:17.037Z,70.18
2022-09-27T02:28:45.755Z,69.26
2022-09-27T02:31:16.490Z,69.82
2022-09-27T02:33:47.829Z,69.80
2022-09-27T02:36:12.517Z,69.91
2022-09-27T02:38:36.802Z,69.28
2022-09-27T02:41:00.827Z,68.71
2022-09-27T02:43:32.839Z,68.75
2022-09-27T02:46:20.667Z,69.24
2022-09-27T02:48:58.051Z,69.16
2022-09-27T02:51:39.260Z,69.92
2022-09-27T02:54:18.397Z,69.71
2022-09-27T02:57:25.214Z,69.02
2022-09-27T03:00:36.088Z,69.48
2022-09-27T03:03:28.571Z,70.34
2022-09-27T03:06:05.427Z,68.87
2022-09-27T03:08:29.374Z,69.54
2022-09-27T03:10:53.190Z,69.25
2022-09-27T03:13:17.171Z,69.92
2022-09-27T03:15:42.234Z,69.21
2022-09-27T03:18:07.581Z,69.97
2022-09-27T03:20:31.537Z,68.90
2022-09-27T03:23:22.887Z,69.11
2022-09-27T03:25:46.675Z,70.76
2022-09-27T03:28:10.600Z,70.42
2022-09-27T03:30:36.581Z,71.14
2022-09-27T03:33:00.518Z,71.87
2022-09-27T03:35:46.524Z,70.85
2022-09-27T03:38:12.054Z,71.29
2022-09-27T03:40:37.924Z,71.68
2022-09-27T03:43:03.143Z,71.09
2022-09-27T03:45:28.566Z,70.79
2022-09-27T03:47:54.883Z,73.00
2022-09-27T03:50:19.259Z,73.77
2022-09-27T03:52:44.991Z,73.43
2022-09-27T03:55:10.111Z,73.79
2022-09-27T03:57:35.311Z,73.32
2022-09-27T03:59:59.865Z,74.12
2022-09-27T04:02:35.634Z,74.67
2022-09-27T04:05:17.936Z,75.23
2022-09-27T04:07:41.819Z,75.09
2022-09-27T04:10:06.720Z,74.95
2022-09-27T04:12:33.108Z,75.39
2022-09-27T04:14:58.265Z,74.91
2022-09-27T04:17:50.922Z,75.92
2022-09-27T04:20:23.467Z,74.67
2022-09-27T04:22:47.317Z,75.71
2022-09-27T04:25:11.388Z,75.85
2022-09-27T04:27:36.911Z,75.87
2022-09-27T04:30:02.310Z,74.72
2022-09-27T04:32:49.243Z,75.38
2022-09-27T04:36:05.578Z,74.58
2022-09-27T04:38:30.920Z,74.11
2022-09-27T04:40:54.640Z,74.73
2022-09-27T04:43:19.221Z,76.05
2022-09-27T04:45:45.240Z,76.24
2022-09-27T04:48:09.105Z,76.36
2022-09-27T04:50:35.877Z,77.89
2022-09-27T04:53:00.848Z,78.87
2022-09-27T04:55:24.718Z,79.64
2022-09-27T04:57:48.579Z,79.55
2022-09-27T05:00:13.763Z,80.93
2022-09-27T05:02:39.575Z,80.60
2022-09-27T05:05:23.608Z,80.87
2022-09-27T05:07:47.377Z,81.04
2022-09-27T05:10:22.496Z,81.18
2022-09-27T05:12:46.399Z,82.47
2022-09-27T05:15:13.038Z,81.91
2022-09-27T05:18:18.139Z,83.10
2022-09-27T05:21:00.909Z,82.66
2022-09-27T05:23:31.013Z,82.39
2022-09-27T05:25:56.568Z,82.99
2022-09-27T05:28:20.282Z,83.84
2022-09-27T05:30:44.236Z,84.24
2022-09-27T05:33:15.421Z,84.85
2022-09-27T05:35:47.317Z,83.94
2022-09-27T05:38:12.167Z,85.35
2022-09-27T05:40:41.979Z,85.82
2022-09-27T05:43:07.503Z,85.95
2022-09-27T05:45:31.235Z,85.63
2022-09-27T05:48:00.631Z,86.24
2022-09-27T05:50:27.752Z,86.22
2022-09-27T05:52:51.920Z,85.97
2022-09-27T05:55:17.111Z,85.80
2022-09-27T05:57:41.015Z,86.44
2022-09-27T06:00:07.110Z,87.81
2022-09-27T06:02:36.712Z,87.67
2022-09-27T06:05:19.852Z,88.12
2022-09-27T06:07:44.944Z,88.42
2022-09-27T06:10:16.884Z,88.18
2022-09-27T06:12:40.631Z,87.91
2022-09-27T06:15:15.766Z,87.44
2022-09-27T06:17:41.684Z,88.37
2022-09-27T06:20:11.867Z,87.70
2022-09-27T06:22:36.125Z,87.54
2022-09-27T06:25:02.015Z,89.47
2022-09-27T06:27:28.070Z,89.31
2022-09-27T06:30:02.896Z,89.82
2022-09-27T06:32:46.796Z,89.31
2022-09-27T06:35:21.210Z,89.46
2022-09-27T06:37:44.924Z,88.07
2022-09-27T06:40:11.586Z,86.99
2022-09-27T06:43:04.909Z,88.51
2022-09-27T06:45:52.592Z,87.66
2022-09-27T06:48:42.646Z,88.38
2022-09-27T06:51:13.835Z,88.92
2022-09-27T06:53:37.575Z,88.29
2022-09-27T06:56:03.746Z,87.29
2022-09-27T06:58:55.105Z,87.83
2022-09-27T07:01:36.919Z,88.75
2022-09-27T07:04:19.422Z,89.15
2022-09-27T07:06:54.052Z,88.28
2022-09-27T07:09:20.471Z,89.07
2022-09-27T07:11:46.035Z,89.37
2022-09-27T07:14:10.855Z,89.17
2022-09-27T07:16:34.984Z,88.91
2022-09-27T07:19:00.707Z,91.10
2022-09-27T07:21:24.456Z,88.95
2022-09-27T07:23:48.570Z,89.78
2022-09-27T07:26:12.776Z,87.92
2022-09-27T07:28:38.246Z,88.83
2022-09-27T07:31:03.650Z,90.60
2022-09-27T07:33:28.094Z,88.97
2022-09-27T07:35:51.879Z,89.64
2022-09-27T07:38:16.513Z,88.83
2022-09-27T07:40:40.621Z,89.71
2022-09-27T07:43:04.818Z,89.19
2022-09-27T07:45:30.361Z,91.28
2022-09-27T07:48:00.223Z,91.74
2022-09-27T07:50:53.557Z,90.59
2022-09-27T07:53:36.074Z,90.24
2022-09-27T07:56:29.103Z,89.64
2022-09-27T07:58:53.194Z,90.02
2022-09-27T08:01:18.436Z,89.09
2022-09-27T08:03:42.242Z,88.73
2022-09-27T08:06:06.075Z,90.30
2022-09-27T08:08:30.160Z,90.15
2022-09-27T08:10:53.829Z,90.75
2022-09-27T08:13:20.463Z,90.24
2022-09-27T08:15:45.802Z,89.85
2022-09-27T08:18:11.089Z,90.13
2022-09-27T08:20:58.752Z,90.45
2022-09-27T08:23:48.534Z,89.99
2022-09-27T08:26:20.946Z,89.19
2022-09-27T08:28:55.323Z,88.07
2022-09-27T08:31:25.506Z,89.54
2022-09-27T08:33:54.246Z,89.87
2022-09-27T08:36:20.162Z,89.71
2022-09-27T08:38:43.850Z,88.56
2022-09-27T08:41:14.713Z,88.30
2022-09-27T08:43:47.373Z,89.83
2022-09-27T08:46:24.079Z,88.24
2022-09-27T08:48:55.888Z,89.40
2022-09-27T08:51:25.140Z,90.46
2022-09-27T08:53:54.143Z,90.37
2022-09-27T08:56:21.378Z,89.94
2022-09-27T08:58:53.105Z,90.22
2022-09-27T09:01:29.097Z,88.46
2022-09-27T09:04:06.806Z,89.31
2022-09-27T09:06:37.581Z,87.72
2022-09-27T09:09:16.708Z,88.94
2022-09-27T09:12:24.591Z,86.56
2022-09-27T09:15:20.483Z,87.40
2022-09-27T09:18:21.831Z,87.41
2022-09-27T09:21:20.011Z,87.70
2022-09-27T09:24:22.831Z,87.49
2022-09-27T09:26:57.647Z,86.27
2022-09-27T09:29:38.715Z,86.14
2022-09-27T09:32:17.728Z,85.75
2022-09-27T09:34:48.407Z,84.96
2022-09-27T09:37:21.320Z,86.55
2022-09-27T09:39:51.438Z,86.49
2022-09-27T09:42:22.158Z,85.51
2022-09-27T09:44:54.282Z,85.12
2022-09-27T09:47:33.322Z,86.56
2022-09-27T09:50:02.070Z,85.18
2022-09-27T09:52:37.991Z,85.82
2022-09-27T09:55:09.477Z,85.22
2022-09-27T09:57:42.026Z,84.46
2022-09-27T10:00:17.943Z,85.21
2022-09-27T10:02:46.295Z,86.10
2022-09-27T10:05:18.085Z,84.55
2022-09-27T10:07:45.142Z,85.26
2022-09-27T10:10:13.328Z,85.83
2022-09-27T10:12:49.931Z,85.72
2022-09-27T10:15:19.351Z,86.47
2022-09-27T10:17:47.790Z,85.20
2022-09-27T10:20:27.470Z,84.15
2022-09-27T10:22:58.683Z,83.96
2022-09-27T10:25:53.899Z,84.97
2022-09-27T10:28:39.103Z,84.40
2022-09-27T10:31:06.942Z,82.55
2022-09-27T10:33:38.875Z,84.25
2022-09-27T10:36:04.679Z,81.95
2022-09-27T10:38:36.959Z,81.32
2022-09-27T10:41:25.721Z,80.66
2022-09-27T10:43:56.055Z,80.08
2022-09-27T10:46:29.815Z,81.14
2022-09-27T10:49:21.959Z,81.10
2022-09-27T10:51:52.058Z,81.41
2022-09-27T10:54:24.598Z,80.15
2022-09-27T10:57:00.423Z,80.05
2022-09-27T10:59:24.474Z,81.98
2022-09-27T11:01:50.792Z,81.14
2022-09-27T11:04:24.914Z,77.73
2022-09-27T11:06:48.975Z,80.38
2022-09-27T11:09:24.429Z,78.47
2022-09-27T11:11:49.320Z,77.75
2022-09-27T11:14:22.155Z,78.06
2022-09-27T11:17:03.744Z,78.65
2022-09-27T11:19:56.607Z,77.98
2022-09-27T11:22:44.939Z,76.76
2022-09-27T11:25:22.333Z,77.84
2022-09-27T11:28:01.690Z,78.55
2022-09-27T11:30:38.290Z,76.64
2022-09-27T11:33:55.702Z,75.04
2022-09-27T11:36:36.504Z,75.39
2022-09-27T11:39:10.727Z,73.13
2022-09-27T11:42:05.686Z,75.88
2022-09-27T11:48:01.652Z,72.76
2022-09-27T11:51:02.430Z,75.17
2022-09-27T11:53:51.156Z,78.20
2022-09-27T11:56:29.290Z,80.14
2022-09-27T11:59:25.064Z,82.21
2022-09-27T12:01:56.092Z,85.66
2022-09-27T12:04:53.342Z,83.56
2022-09-27T12:07:24.722Z,82.93
2022-09-27T12:09:53.510Z,82.76
2022-09-27T12:12:22.157Z,82.60
2022-09-27T12:14:52.166Z,83.99
2022-09-27T12:17:21.924Z,87.19
2022-09-27T12:19:51.753Z,86.53
2022-09-27T12:22:40.566Z,86.07
2022-09-27T12:25:20.337Z,86.21
2022-09-27T12:27:59.323Z,87.65
2022-09-27T12:30:24.609Z,90.62
2022-09-27T12:33:09.707Z,88.61
2022-09-27T12:35:42.814Z,89.59
2022-09-27T12:38:14.331Z,91.31
2022-09-27T12:40:42.704Z,90.57
2022-09-27T12:43:15.491Z,89.33
2022-09-27T12:46:05.273Z,89.02
2022-09-27T12:48:41.226Z,90.18
2022-09-27T12:51:10.736Z,91.80
2022-09-27T12:53:50.299Z,92.07
2022-09-27T12:56:36.801Z,90.48
2022-09-27T12:59:44.894Z,86.51
2022-09-27T13:03:18.124Z,87.03
2022-09-27T13:06:33.779Z,86.19
2022-09-27T13:09:28.163Z,86.23
2022-09-27T13:12:03.469Z,86.28
2022-09-27T13:14:31.182Z,87.22
2022-09-27T13:16:55.149Z,85.04
2022-09-27T13:19:43.020Z,84.45
2022-09-27T13:22:11.443Z,82.53
2022-09-27T13:24:55.598Z,81.49
2022-09-27T13:27:42.649Z,79.43
2022-09-27T13:30:50.919Z,81.78
2022-09-27T13:33:46.476Z,81.67
2022-09-27T13:36:30.631Z,85.04
2022-09-27T13:39:28.619Z,84.88
2022-09-27T13:42:30.084Z,84.84
2022-09-27T13:45:21.213Z,85.31
2022-09-27T13:47:49.147Z,83.35
2022-09-27T13:50:35.587Z,85.98
2022-09-27T13:53:10.168Z,85.67
2022-09-27T13:55:43.223Z,85.54
2022-09-27T13:58:35.692Z,84.85
2022-09-27T14:01:08.592Z,84.15
2022-09-27T14:03:55.283Z,83.16
2022-09-27T14:06:27.072Z,83.70
2022-09-27T14:08:56.459Z,84.43
2022-09-27T14:11:27.234Z,83.21
2022-09-27T14:13:53.322Z,85.65
2022-09-27T14:16:20.860Z,84.98
2022-09-27T14:18:51.117Z,84.02
2022-09-27T14:21:29.794Z,83.17
2022-09-27T14:24:28.989Z,82.72
2022-09-27T14:27:17.401Z,86.86
2022-09-27T14:29:46.755Z,83.77
2022-09-27T14:32:16.539Z,83.32
2022-09-27T14:35:29.246Z,84.57
2022-09-27T14:37:53.518Z,83.25
2022-09-27T14:40:24.348Z,82.57
2022-09-27T14:42:48.894Z,81.19
2022-09-27T14:45:23.320Z,82.78
2022-09-27T14:47:48.515Z,81.43
2022-09-27T14:50:23.840Z,82.11
2022-09-27T14:52:49.227Z,82.55
2022-09-27T14:55:21.337Z,82.21
2022-09-27T14:57:52.311Z,83.58
2022-09-27T15:00:22.461Z,84.71
2022-09-27T15:02:46.435Z,86.29
2022-09-27T15:05:17.207Z,85.54
2022-09-27T15:07:41.081Z,86.54
2022-09-27T15:10:05.300Z,84.19
2022-09-27T15:12:30.572Z,86.45
2022-09-27T15:14:58.232Z,86.93
2022-09-27T15:17:25.263Z,86.17
2022-09-27T15:20:00.722Z,86.66
2022-09-27T15:22:32.152Z,86.67
2022-09-27T15:25:09.374Z,87.02
2022-09-27T15:27:34.375Z,87.75
2022-09-27T15:29:59.695Z,86.81
2022-09-27T15:32:26.391Z,87.92
2022-09-27T15:34:50.228Z,89.02
2022-09-27T15:37:29.138Z,87.19
2022-09-27T15:39:52.786Z,87.88
2022-09-27T15:42:17.647Z,86.97
2022-09-27T15:44:48.406Z,86.20
2022-09-27T15:47:51.295Z,87.52
2022-09-27T15:50:39.730Z,88.21
2022-09-27T15:53:05.643Z,87.85
2022-09-27T15:55:30.979Z,88.19
2022-09-27T15:57:59.456Z,87.02
2022-09-27T16:00:24.655Z,88.22
2022-09-27T16:02:48.670Z,90.38
2022-09-27T16:05:12.335Z,89.38
2022-09-27T16:07:36.179Z,88.38
2022-09-27T16:09:59.695Z,87.30
2022-09-27T16:12:23.454Z,87.07
2022-09-27T16:14:46.972Z,87.15
2022-09-27T16:17:12.687Z,89.05
2022-09-27T16:19:36.214Z,88.46
2022-09-27T16:22:03.402Z,87.85
2022-09-27T16:24:28.918Z,86.13
2022-09-27T16:26:52.512Z,86.05
2022-09-27T16:29:17.290Z,85.76
2022-09-27T16:31:41.933Z,84.50
2022-09-27T16:34:06.927Z,85.32
2022-09-27T16:36:30.588Z,85.60
2022-09-27T16:38:55.899Z,86.32
2022-09-27T16:41:20.027Z,86.28
2022-09-27T16:43:44.300Z,87.24
2022-09-27T16:46:11.863Z,85.91
2022-09-27T16:48:35.601Z,86.33
2022-09-27T16:51:23.591Z,87.37
2022-09-27T16:53:47.139Z,86.07
2022-09-27T16:56:10.686Z,84.56
2022-09-27T16:58:34.336Z,84.12
2022-09-27T17:00:59.949Z,85.83
2022-09-27T17:03:23.609Z,83.82
2022-09-27T17:05:47.144Z,84.46
2022-09-27T17:08:12.108Z,84.20
2022-09-27T17:10:35.925Z,84.83
2022-09-27T17:13:01.565Z,84.69
2022-09-27T17:15:25.154Z,84.67
2022-09-27T17:17:50.774Z,85.71
2022-09-27T17:20:14.425Z,84.55
2022-09-27T17:22:37.975Z,86.00
2022-09-27T17:25:02.899Z,86.72
2022-09-27T17:27:28.790Z,86.74
2022-09-27T17:29:52.283Z,86.07
2022-09-27T17:32:15.886Z,85.81
2022-09-27T17:34:43.478Z,86.47
2022-09-27T17:37:07.069Z,85.36
2022-09-27T17:39:30.662Z,84.67
2022-09-27T17:41:55.647Z,85.54
2022-09-27T17:44:20.389Z,85.56
2022-09-27T17:46:44.113Z,85.68
2022-09-27T17:49:25.275Z,86.17
2022-09-27T17:51:51.693Z,85.21
2022-09-27T17:54:16.782Z,84.65
2022-09-27T17:56:41.667Z,85.35
2022-09-27T17:59:07.575Z,85.52
2022-09-27T18:01:31.292Z,85.42
2022-09-27T18:03:56.100Z,84.37
2022-09-27T18:06:19.727Z,85.16
2022-09-27T18:08:43.330Z,85.22
2022-09-27T18:11:10.241Z,85.88
2022-09-27T18:13:37.758Z,85.08
2022-09-27T18:16:03.185Z,85.82
2022-09-27T18:18:28.272Z,86.36
2022-09-27T18:20:51.919Z,86.44
2022-09-27T18:23:15.447Z,87.48
2022-09-27T18:25:40.394Z,88.50
2022-09-27T18:28:03.870Z,86.84
2022-09-27T18:30:27.510Z,89.26
2022-09-27T18:32:52.401Z,89.91
2022-09-27T18:35:16.172Z,88.18
2022-09-27T18:37:39.682Z,88.58
2022-09-27T18:40:03.542Z,89.57
2022-09-27T18:42:27.119Z,89.52
2022-09-27T18:44:51.545Z,89.54
2022-09-27T18:47:15.145Z,90.06
2022-09-27T18:49:40.255Z,89.26
2022-09-27T18:52:03.815Z,89.35
2022-09-27T18:54:27.368Z,89.48
2022-09-27T18:56:52.481Z,88.37
2022-09-27T18:59:17.375Z,87.10
2022-09-27T19:01:45.384Z,88.46
2022-09-27T19:04:10.438Z,87.10
2022-09-27T19:06:35.937Z,88.55
2022-09-27T19:08:59.715Z,88.00
2022-09-27T19:11:23.503Z,88.04
2022-09-27T19:13:52.161Z,87.20
2022-09-27T19:16:15.710Z,88.41
2022-09-27T19:18:40.862Z,87.77
2022-09-27T19:21:09.771Z,87.78
2022-09-27T19:23:36.070Z,86.30
2022-09-27T19:26:00.851Z,86.54
2022-09-27T19:28:24.447Z,86.12
2022-09-27T19:30:47.974Z,86.18
2022-09-27T19:33:11.684Z,86.81
2022-09-27T19:35:35.355Z,87.76
2022-09-27T19:37:59.767Z,86.43
2022-09-27T19:40:24.670Z,85.52
2022-09-27T19:42:52.752Z,85.44
2022-09-27T19:45:16.470Z,85.23
2022-09-27T19:47:40.035Z,85.86
2022-09-27T19:50:03.563Z,85.00
2022-09-27T19:52:27.659Z,85.12
2022-09-27T19:54:51.219Z,84.64
2022-09-27T19:57:16.475Z,84.99
2022-09-27T19:59:42.207Z,85.05
2022-09-27T20:02:05.886Z,85.68
2022-09-27T20:04:29.496Z,85.58
2022-09-27T20:06:53.079Z,84.45
2022-09-27T20:09:16.744Z,84.21
2022-09-27T20:11:40.429Z,84.93
2022-09-27T20:14:05.341Z,85.47
2022-09-27T20:16:29.450Z,87.19
2022-09-27T20:18:55.080Z,85.55
2022-09-27T20:21:20.548Z,86.08
2022-09-27T20:23:44.393Z,85.51
2022-09-27T20:26:10.190Z,85.95
2022-09-27T20:28:33.748Z,86.43
2022-09-27T20:31:00.833Z,87.29
2022-09-27T20:33:42.476Z,88.43
2022-09-27T20:36:06.435Z,89.56
2022-09-27T20:38:29.943Z,89.97
2022-09-27T20:40:59.058Z,89.20
2022-09-27T20:43:22.732Z,89.36
2022-09-27T20:45:46.678Z,89.86
2022-09-27T20:48:11.604Z,89.69
2022-09-27T20:50:35.155Z,90.48
2022-09-27T20:52:58.667Z,90.01
2022-09-27T20:55:22.231Z,89.15
2022-09-27T20:57:57.396Z,89.76
2022-09-27T21:00:21.527Z,89.54
2022-09-27T21:02:45.014Z,89.21
2022-09-27T21:05:11.079Z,89.47
2022-09-27T21:07:34.579Z,89.19
2022-09-27T21:09:58.147Z,88.19
2022-09-27T21:12:21.662Z,88.48
2022-09-27T21:14:45.244Z,87.94
2022-09-27T21:17:09.238Z,87.97
2022-09-27T21:19:35.000Z,88.46
2022-09-27T21:21:59.894Z,89.12
2022-09-27T21:24:23.464Z,89.35
2022-09-27T21:26:46.985Z,89.99
2022-09-27T21:29:12.827Z,88.12
2022-09-27T21:31:38.086Z,87.88
2022-09-27T21:34:04.050Z,88.32
2022-09-27T21:36:30.172Z,87.93
2022-09-27T21:38:55.913Z,88.45
2022-09-27T21:41:20.179Z,87.38
2022-09-27T21:43:45.384Z,86.32
2022-09-27T21:46:12.062Z,87.15
2022-09-27T21:48:38.653Z,86.61
2022-09-27T21:51:08.057Z,86.46
2022-09-27T21:53:31.683Z,86.83
2022-09-27T21:55:57.722Z,87.00
2022-09-27T21:58:21.326Z,87.70
2022-09-27T22:00:44.874Z,86.67
2022-09-27T22:03:08.507Z,87.60
2022-09-27T22:05:32.224Z,86.75
2022-09-27T22:07:55.803Z,87.04
2022-09-27T22:10:19.311Z,86.15
2022-09-27T22:12:44.266Z,85.98
2022-09-27T22:15:08.732Z,85.29
2022-09-27T22:17:32.289Z,84.91
2022-09-27T22:19:55.797Z,84.70
2022-09-27T22:22:19.348Z,86.80
2022-09-27T22:24:42.884Z,86.91
2022-09-27T22:27:06.489Z,86.40
2022-09-27T22:29:31.389Z,87.15
2022-09-27T22:31:55.123Z,86.28
2022-09-27T22:34:28.873Z,86.94
2022-09-27T22:36:52.669Z,87.36
2022-09-27T22:39:16.475Z,87.30
2022-09-27T22:41:40.139Z,86.95
2022-09-27T22:44:03.651Z,88.17
2022-09-27T22:46:28.745Z,87.82
2022-09-27T22:48:52.449Z,88.82
2022-09-27T22:51:16.014Z,88.25
2022-09-27T22:53:39.971Z,89.29
2022-09-27T22:56:07.046Z,88.82
2022-09-27T22:58:31.380Z,89.26
2022-09-27T23:00:55.286Z,89.84
2022-09-27T23:03:20.697Z,89.50
2022-09-27T23:05:44.554Z,89.21
2022-09-27T23:08:08.172Z,89.24
2022-09-27T23:10:31.869Z,88.93
2022-09-27T23:12:55.817Z,89.45
2022-09-27T23:15:19.382Z,88.09
2022-09-27T23:17:42.916Z,89.08
2022-09-27T23:20:09.588Z,89.53
2022-09-27T23:22:34.256Z,89.41
2022-09-27T23:24:57.793Z,88.76
2022-09-27T23:27:38.542Z,89.27
2022-09-27T23:30:02.082Z,91.16
2022-09-27T23:32:29.672Z,90.09
2022-09-27T23:34:55.175Z,90.54
2022-09-27T23:37:20.057Z,89.20
2022-09-27T23:39:43.709Z,89.04
2022-09-27T23:42:07.550Z,88.94
2022-09-27T23:44:31.403Z,89.99
2022-09-27T23:47:00.185Z,89.70
2022-09-27T23:49:24.066Z,89.21
2022-09-27T23:51:47.593Z,89.29
2022-09-27T23:54:12.787Z,90.59
2022-09-27T23:56:36.663Z,90.49
2022-09-27T23:59:01.083Z,89.73
